Time;durP1;ratioP1;P1;durP2;ratioP2;P2;SDS_P1;SDS_P2;PMS_P1;PMS_P2;Temp;Humidity;BMP_temperature;BMP_pressure;BME280_temperature;BME280_humidity;BME280_pressure;Samples;Min_cycle;Max_cycle;Signal;HPM_P1;HPM_P2
2022/12/29 00:01:27;;;;;;;43.33;18.30;;;;;;;-0.40;70.56;101547.81;123339;1102;104307;-79
2022/12/29 00:03:58;;;;;;;42.10;19.97;;;;;;;-0.40;71.23;101549.49;123142;1099;104229;-78
2022/12/29 00:06:30;;;;;;;36.63;17.07;;;;;;;-0.37;70.57;101542.05;123154;1102;104345;-79
2022/12/29 00:09:01;;;;;;;38.27;18.13;;;;;;;-0.32;70.58;101532.17;123182;1099;104437;-78
2022/12/29 00:11:34;;;;;;;41.13;17.93;;;;;;;-0.30;70.77;101522.91;123148;1099;104380;-78
2022/12/29 00:16:59;;;;;;;37.93;16.87;;;;;;;-0.26;70.70;101507.86;123236;1099;104248;-79
2022/12/29 00:46:01;;;;;;;35.47;15.17;;;;;;;-0.35;71.42;101488.03;123049;1102;109487;-78
2022/12/29 00:51:35;;;;;;;32.07;15.03;;;;;;;-0.34;71.49;101477.87;123221;1099;104364;-78
2022/12/29 00:54:06;;;;;;;34.77;14.60;;;;;;;-0.35;71.19;101475.14;123096;1101;104239;-79
2022/12/29 00:56:37;;;;;;;34.73;14.17;;;;;;;-0.36;71.25;101474.21;123113;1102;104351;-78
2022/12/29 00:59:10;;;;;;;33.27;14.13;;;;;;;-0.35;71.65;101472.56;123169;1102;104283;-78
2022/12/29 01:01:42;;;;;;;31.23;13.93;;;;;;;-0.34;72.04;101464.97;123150;1099;104293;-78
2022/12/29 01:04:14;;;;;;;32.00;13.60;;;;;;;-0.30;72.08;101461.00;123090;1099;104367;-79
2022/12/29 01:06:45;;;;;;;31.20;13.23;;;;;;;-0.29;71.74;101445.67;123194;1102;104437;-79
2022/12/29 01:12:08;;;;;;;28.27;11.90;;;;;;;-0.27;71.72;101453.55;123120;1102;104363;-78
2022/12/29 01:14:43;;;;;;;32.83;12.70;;;;;;;-0.28;72.29;101457.81;123162;1102;104313;-78
2022/12/29 01:17:14;;;;;;;28.40;12.33;;;;;;;-0.29;71.45;101467.98;123197;1102;104513;-78
2022/12/29 01:19:45;;;;;;;30.93;13.03;;;;;;;-0.29;72.11;101465.41;123131;1099;104379;-78
2022/12/29 01:22:16;;;;;;;30.33;11.67;;;;;;;-0.27;71.49;101464.77;123185;1099;104258;-78
2022/12/29 01:24:48;;;;;;;30.40;12.57;;;;;;;-0.25;71.97;101454.59;123186;1099;105672;-78
2022/12/29 01:27:19;;;;;;;27.97;12.10;;;;;;;-0.26;71.33;101458.86;123188;1099;104655;-78
2022/12/29 01:29:50;;;;;;;29.00;12.30;;;;;;;-0.26;71.45;101456.28;123136;1102;104664;-78
2022/12/29 01:32:21;;;;;;;30.07;11.13;;;;;;;-0.26;71.61;101465.70;123155;1099;104310;-78
2022/12/29 01:34:54;;;;;;;25.80;10.80;;;;;;;-0.23;71.90;101455.67;123259;1099;104233;-78
2022/12/29 01:37:28;;;;;;;22.57;8.67;;;;;;;-0.21;72.12;101446.39;123242;1102;104431;-78
2022/12/29 01:39:59;;;;;;;24.37;8.37;;;;;;;-0.14;72.35;101443.63;123197;1102;104286;-78
2022/12/29 01:42:31;;;;;;;19.23;7.93;;;;;;;-0.07;72.08;101439.94;123196;1099;104223;-77
2022/12/29 01:45:09;;;;;;;21.00;7.53;;;;;;;0.01;72.77;101438.08;123200;1102;104319;-78
2022/12/29 01:47:45;;;;;;;19.77;7.47;;;;;;;0.09;72.58;101437.10;123266;1099;104367;-77
2022/12/29 01:50:21;;;;;;;19.33;7.27;;;;;;;0.12;72.51;101427.06;123251;1102;104332;-78
2022/12/29 01:53:05;;;;;;;19.63;7.20;;;;;;;0.15;72.38;101419.60;123253;1102;104255;-78
2022/12/29 01:55:40;;;;;;;15.77;6.63;;;;;;;0.19;72.50;101419.13;123249;1102;106621;-77
2022/12/29 01:58:15;;;;;;;17.10;7.05;;;;;;;0.24;72.39;101411.81;123097;1100;104248;-78
2022/12/29 02:00:46;;;;;;;19.02;7.75;;;;;;;0.27;71.95;101420.73;123239;1100;104172;-78
2022/12/29 02:03:21;;;;;;;19.03;6.50;;;;;;;0.29;72.57;101423.45;123179;1102;104275;-78
2022/12/29 02:05:57;;;;;;;19.07;7.23;;;;;;;0.31;72.58;101425.42;123137;1102;104272;-78
2022/12/29 02:08:30;;;;;;;17.30;7.07;;;;;;;0.32;72.21;101424.63;123120;1102;104360;-78
2022/12/29 02:11:04;;;;;;;18.27;7.30;;;;;;;0.33;72.62;101413.55;123164;1100;104271;-78
2022/12/29 02:13:39;;;;;;;17.85;7.15;;;;;;;0.34;72.07;101407.63;123156;1102;104230;-78
2022/12/29 02:16:22;;;;;;;21.00;7.80;;;;;;;0.36;72.58;101410.34;123125;1099;104290;-78
2022/12/29 02:19:05;;;;;;;20.53;7.50;;;;;;;0.37;72.17;101400.91;123149;1099;104200;-78
2022/12/29 02:21:55;;;;;;;18.53;7.37;;;;;;;0.38;72.35;101405.32;123221;1099;104293;-78
2022/12/29 02:25:17;;;;;;;18.50;7.07;;;;;;;0.37;72.42;101395.75;123134;1100;104737;-78
2022/12/29 02:28:07;;;;;;;20.33;7.37;;;;;;;0.35;72.24;101393.92;123231;1099;104248;-77
2022/12/29 02:30:53;;;;;;;21.00;7.50;;;;;;;0.37;72.27;101398.33;123152;1102;104271;-78
2022/12/29 02:33:41;;;;;;;19.20;7.07;;;;;;;0.35;71.95;101396.50;123190;1102;104335;-79
2022/12/29 02:36:21;;;;;;;18.87;7.40;;;;;;;0.35;72.38;101396.50;123149;1102;104465;-78
2022/12/29 02:39:02;;;;;;;16.00;6.60;;;;;;;0.35;72.50;101393.03;123172;1100;104307;-79
2022/12/29 02:41:40;;;;;;;20.03;7.17;;;;;;;0.35;72.15;101393.03;123215;1102;104377;-78
2022/12/29 02:44:18;;;;;;;18.23;6.63;;;;;;;0.35;72.16;101391.34;123179;1099;104303;-78
2022/12/29 02:46:57;;;;;;;19.10;7.23;;;;;;;0.35;72.51;101383.59;123260;1099;104350;-78
2022/12/29 02:49:37;;;;;;;21.97;7.23;;;;;;;0.36;72.14;101387.11;123242;1102;104408;-78
2022/12/29 02:52:13;;;;;;;20.30;7.40;;;;;;;0.36;72.39;101392.27;123202;1102;104265;-78
2022/12/29 02:54:44;;;;;;;22.83;7.70;;;;;;;0.35;72.33;101388.77;123133;1102;104408;-78
2022/12/29 02:57:29;;;;;;;14.10;5.93;;;;;;;0.35;71.99;101393.03;123231;1102;104387;-78
2022/12/29 03:00:07;;;;;;;19.37;6.28;;;;;;;0.34;72.40;101392.14;123123;1099;104261;-78
2022/12/29 03:03:03;;;;;;;19.20;7.97;;;;;;;0.34;72.32;101394.72;123147;1099;104409;-78
2022/12/29 03:05:57;;;;;;;17.80;6.93;;;;;;;0.33;72.11;101387.73;123080;1099;104315;-78
2022/12/29 03:08:42;;;;;;;17.40;6.63;;;;;;;0.32;71.82;101383.31;123164;1100;104286;-78
2022/12/29 03:17:00;;;;;;;26.47;9.93;;;;;;;0.23;72.44;101382.48;123168;1099;104258;-78
2022/12/29 03:19:36;;;;;;;24.95;9.15;;;;;;;0.21;72.17;101383.13;123071;1102;104395;-78
2022/12/29 03:22:31;;;;;;;25.87;9.33;;;;;;;0.15;72.33;101388.63;123186;1099;104351;-78
2022/12/29 03:25:16;;;;;;;24.13;9.20;;;;;;;0.09;72.58;101376.06;123127;1099;104293;-78
2022/12/29 03:27:52;;;;;;;21.20;8.47;;;;;;;0.07;72.63;101374.12;123119;1102;104258;-78
2022/12/29 03:30:24;;;;;;;20.83;8.70;;;;;;;0.05;72.39;101373.05;123184;1100;104412;-78
2022/12/29 03:32:58;;;;;;;25.07;8.87;;;;;;;0.05;72.41;101375.64;123144;1099;104296;-78
2022/12/29 03:35:34;;;;;;;23.57;8.20;;;;;;;0.02;72.01;101373.70;123133;1102;104295;-78
2022/12/29 03:38:13;;;;;;;20.83;7.97;;;;;;;0.01;72.36;101382.20;123107;1102;104704;-78
2022/12/29 03:40:49;;;;;;;26.60;9.00;;;;;;;0.01;72.32;101387.36;123176;1102;104324;-78
2022/12/29 03:43:21;;;;;;;21.70;9.07;;;;;;;-0.01;72.70;101384.64;123137;1099;104693;-78
2022/12/29 03:45:52;;;;;;;22.53;8.83;;;;;;;-0.02;72.45;101388.02;123228;1102;104287;-78
2022/12/29 03:48:23;;;;;;;19.93;7.63;;;;;;;-0.01;72.50;101381.16;123083;1099;104348;-78
2022/12/29 03:50:55;;;;;;;20.20;7.53;;;;;;;-0.02;72.53;101377.69;123122;1102;104345;-78
2022/12/29 03:53:27;;;;;;;23.07;7.43;;;;;;;-0.03;72.53;101381.02;123143;1099;104351;-78
2022/12/29 03:55:58;;;;;;;25.20;8.20;;;;;;;-0.03;72.39;101375.86;123168;1102;104399;-78
2022/12/29 03:58:30;;;;;;;20.37;8.00;;;;;;;-0.01;72.79;101381.16;123089;1102;104469;-78
2022/12/29 04:01:13;;;;;;;21.33;7.63;;;;;;;-0.01;72.12;101376.00;123039;1102;104265;-78
2022/12/29 04:03:45;;;;;;;19.60;6.83;;;;;;;-0.02;72.21;101375.11;123019;1102;104274;-77
2022/12/29 04:06:18;;;;;;;20.03;7.10;;;;;;;0.00;72.51;101364.92;123246;1102;104275;-78
2022/12/29 04:08:54;;;;;;;17.67;6.40;;;;;;;0.02;72.83;101359.88;123196;1102;104846;-79
2022/12/29 04:11:27;;;;;;;17.50;6.57;;;;;;;0.03;73.11;101356.53;123165;1099;104350;-78
2022/12/29 04:13:59;;;;;;;20.83;6.93;;;;;;;0.04;72.88;101363.52;123200;1100;104277;-77
2022/12/29 04:16:35;;;;;;;17.25;6.28;;;;;;;0.05;73.08;101362.73;123282;1099;104342;-77
2022/12/29 04:19:10;;;;;;;18.67;7.47;;;;;;;0.07;73.29;101366.39;123285;1102;104823;-77
2022/12/29 04:21:45;;;;;;;17.17;6.90;;;;;;;0.07;72.64;101359.53;123196;1100;104334;-78
2022/12/29 04:24:17;;;;;;;18.23;6.63;;;;;;;0.10;72.74;101353.76;123310;1099;104348;-78
2022/12/29 04:26:50;;;;;;;19.13;6.60;;;;;;;0.10;72.78;101351.18;123196;1102;104310;-78
2022/12/29 04:29:48;;;;;;;17.67;6.83;;;;;;;0.11;72.75;101348.73;123079;1099;104504;-79
2022/12/29 04:32:47;;;;;;;21.77;7.40;;;;;;;0.13;72.67;101335.97;123233;1099;104321;-78
2022/12/29 04:35:19;;;;;;;20.90;6.70;;;;;;;0.12;72.94;101332.47;123185;1102;104483;-79
2022/12/29 04:37:50;;;;;;;22.13;8.17;;;;;;;0.12;72.96;101328.98;123140;1099;104281;-78
2022/12/29 04:40:23;;;;;;;20.67;7.07;;;;;;;0.11;72.70;101322.00;123225;1099;105740;-79
2022/12/29 04:42:54;;;;;;;17.77;7.23;;;;;;;0.11;73.47;101316.84;123161;1102;104341;-78
2022/12/29 04:45:26;;;;;;;20.80;8.47;;;;;;;0.10;73.18;101317.63;123165;1099;104386;-79
2022/12/29 04:48:11;;;;;;;18.63;7.10;;;;;;;0.08;73.41;101321.72;123198;1099;104850;-79
2022/12/29 04:51:11;;;;;;;19.57;7.40;;;;;;;0.07;73.08;101323.41;123141;1099;108136;-78
2022/12/29 04:53:44;;;;;;;19.90;7.33;;;;;;;0.08;73.37;101330.39;123262;1099;104421;-78
2022/12/29 04:56:15;;;;;;;18.97;7.77;;;;;;;0.07;73.77;101328.57;123231;1102;104245;-77
2022/12/29 04:58:47;;;;;;;22.53;7.77;;;;;;;0.08;73.15;101337.20;123138;1099;104335;-77
2022/12/29 05:01:19;;;;;;;19.63;7.23;;;;;;;0.08;73.16;101332.97;123127;1099;104496;-78
2022/12/29 05:03:52;;;;;;;24.33;8.73;;;;;;;0.08;73.63;101332.97;123275;1099;104348;-77
2022/12/29 05:06:23;;;;;;;18.65;6.72;;;;;;;0.08;73.07;101337.20;123304;1099;104357;-77
2022/12/29 05:08:54;;;;;;;22.53;7.50;;;;;;;0.07;73.44;101341.47;123310;1099;104226;-77
2022/12/29 05:11:26;;;;;;;19.73;7.57;;;;;;;0.05;73.14;101345.59;123136;1102;104348;-78
2022/12/29 05:13:58;;;;;;;22.27;8.67;;;;;;;0.03;73.63;101344.53;123192;1102;104360;-77
2022/12/29 05:16:29;;;;;;;20.30;7.70;;;;;;;0.01;72.87;101345.18;123128;1102;104249;-77
2022/12/29 05:19:01;;;;;;;21.53;7.97;;;;;;;-0.01;72.98;101348.52;123151;1102;104347;-76
2022/12/29 05:21:33;;;;;;;22.77;8.37;;;;;;;0.00;73.15;101352.03;123064;1102;104277;-77
2022/12/29 05:24:05;;;;;;;24.07;8.20;;;;;;;0.02;73.67;101349.55;123131;1102;103483;-76
2022/12/29 05:26:37;;;;;;;19.90;8.23;;;;;;;0.01;73.80;101346.08;123222;1102;104207;-77
2022/12/29 05:29:28;;;;;;;24.20;8.13;;;;;;;0.02;73.52;101349.55;123088;1099;104316;-76
2022/12/29 05:32:00;;;;;;;24.77;8.47;;;;;;;0.03;73.56;101359.12;123172;1102;104405;-77
2022/12/29 05:34:33;;;;;;;22.73;8.20;;;;;;;0.04;73.21;101355.78;123241;1099;104261;-76
2022/12/29 05:37:05;;;;;;;13.72;6.00;;;;;;;0.02;73.97;101370.20;123213;1099;104325;-76
2022/12/29 05:39:37;;;;;;;22.20;7.50;;;;;;;-0.01;73.48;101366.58;123239;1102;104395;-76
2022/12/29 05:42:09;;;;;;;19.23;7.90;;;;;;;-0.01;73.43;101366.58;123189;1102;104629;-77
2022/12/29 05:44:53;;;;;;;21.10;7.80;;;;;;;-0.03;73.64;101365.54;123377;1102;104230;-77
2022/12/29 05:47:52;;;;;;;22.53;8.40;;;;;;;-0.03;73.83;101369.80;123353;1102;104283;-76
2022/12/29 05:50:37;;;;;;;19.73;7.60;;;;;;;-0.02;73.68;101371.59;123352;1102;104335;-76
2022/12/29 05:53:17;;;;;;;19.30;7.67;;;;;;;0.01;73.89;101376.14;123409;1099;104277;-77
2022/12/29 05:55:50;;;;;;;23.25;8.35;;;;;;;0.07;73.97;101376.70;123512;1102;104323;-77
2022/12/29 05:58:22;;;;;;;21.63;9.10;;;;;;;0.13;73.39;101372.11;123454;1099;104756;-77
2022/12/29 06:00:53;;;;;;;22.50;7.87;;;;;;;0.15;73.95;101373.14;123398;1099;104200;-77
2022/12/29 06:03:25;;;;;;;24.47;8.33;;;;;;;0.20;73.62;101374.45;123646;1102;104201;-76
2022/12/29 06:05:56;;;;;;;24.73;8.27;;;;;;;0.21;74.10;101376.28;123696;1102;104392;-77
2022/12/29 06:08:28;;;;;;;23.77;8.47;;;;;;;0.24;73.88;101379.14;123711;1102;104418;-76
2022/12/29 06:10:59;;;;;;;19.43;8.03;;;;;;;0.29;73.81;101382.14;123614;1102;104212;-75
2022/12/29 06:13:31;;;;;;;24.73;8.90;;;;;;;0.35;74.35;101387.87;123661;1099;104275;-77
2022/12/29 06:16:13;;;;;;;23.50;8.87;;;;;;;0.41;73.84;101387.53;123840;1099;104319;-76
2022/12/29 06:18:47;;;;;;;27.60;9.45;;;;;;;0.42;74.06;101397.99;123709;1100;104389;-77
2022/12/29 06:21:28;;;;;;;23.23;9.40;;;;;;;0.36;73.86;101379.36;123923;1099;104248;-76
2022/12/29 06:24:00;;;;;;;25.97;8.97;;;;;;;0.49;73.97;101395.17;124318;1102;104204;-78
2022/12/29 06:26:31;;;;;;;21.80;8.87;;;;;;;0.53;73.79;101392.11;124138;1102;104309;-79
2022/12/29 06:29:04;;;;;;;23.27;8.80;;;;;;;0.58;74.09;101395.11;124104;1102;104217;-77
2022/12/29 06:31:36;;;;;;;24.07;9.53;;;;;;;0.67;73.93;101400.17;123917;1102;104322;-77
2022/12/29 06:34:09;;;;;;;23.27;9.37;;;;;;;0.75;74.11;101400.86;123633;1102;104470;-77
2022/12/29 06:36:41;;;;;;;23.53;9.47;;;;;;;0.87;74.26;101400.30;123718;1102;104249;-76
2022/12/29 06:39:14;;;;;;;22.90;8.97;;;;;;;0.98;74.34;101403.84;123855;1102;104358;-77
2022/12/29 06:41:54;;;;;;;24.27;8.73;;;;;;;1.07;74.35;101399.45;123721;1099;104265;-77
2022/12/29 06:44:35;;;;;;;22.97;8.70;;;;;;;1.12;74.23;101401.54;126071;1099;102045;-78
2022/12/29 06:47:10;;;;;;;25.70;9.40;;;;;;;1.17;74.30;101402.84;126355;1098;101426;-79
2022/12/29 06:49:41;;;;;;;25.50;9.07;;;;;;;1.19;73.93;101401.32;126486;1098;102128;-78
2022/12/29 06:52:15;;;;;;;28.93;9.63;;;;;;;1.21;74.17;101398.08;126296;1099;102909;-76
2022/12/29 06:54:46;;;;;;;29.77;10.20;;;;;;;1.26;74.27;101406.23;126152;1099;101764;-76
2022/12/29 06:57:18;;;;;;;25.43;9.10;;;;;;;1.29;74.22;101396.16;126132;1099;102416;-77
2022/12/29 06:59:50;;;;;;;23.37;9.03;;;;;;;1.33;74.14;101389.59;126066;1099;102114;-78
2022/12/29 07:02:26;;;;;;;19.92;7.92;;;;;;;1.39;73.98;101383.27;125966;1099;102534;-77
2022/12/29 07:04:57;;;;;;;26.87;9.17;;;;;;;1.47;74.63;101372.69;126077;1101;102231;-74
2022/12/29 07:07:31;;;;;;;25.10;9.13;;;;;;;1.54;74.62;101383.69;124555;1102;104261;-75
2022/12/29 07:10:01;;;;;;;;;;;;;;;1.66;74.79;101385.52;124460;1099;104350;-76
2022/12/29 07:14:31;;;;;;;22.22;8.48;;;;;;;1.75;74.34;101363.91;115604;1102;10001814;-75
2022/12/29 07:17:05;;;;;;;32.17;9.23;;;;;;;1.79;74.42;101353.05;123998;1103;102617;-76
2022/12/29 07:19:49;;;;;;;24.33;9.03;;;;;;;1.85;74.45;101349.16;124043;1105;104351;-76
2022/12/29 07:22:46;;;;;;;27.97;9.53;;;;;;;1.91;74.58;101360.02;124166;1105;103283;-78
2022/12/29 07:25:20;;;;;;;26.77;9.70;;;;;;;2.02;74.13;101354.05;123863;1105;104285;-76
2022/12/29 07:27:53;;;;;;;21.23;8.43;;;;;;;2.11;74.38;101361.69;124314;1102;102866;-76
2022/12/29 07:30:25;;;;;;;21.33;8.70;;;;;;;2.21;74.61;101366.84;125977;1101;101356;-77
2022/12/29 07:32:56;;;;;;;30.13;9.40;;;;;;;2.29;74.55;101363.22;125978;1102;102101;-76
2022/12/29 07:35:30;;;;;;;22.90;9.60;;;;;;;2.40;74.73;101360.59;124189;1102;104197;-78
2022/12/29 07:38:07;;;;;;;;;;;;;;;2.47;74.28;101363.81;124256;1102;104249;-78
2022/12/29 07:40:39;;;;;;;25.60;8.87;;;;;;;2.53;74.12;101371.19;124339;1102;103075;-76
2022/12/29 07:43:20;;;;;;;23.50;8.87;;;;;;;2.61;74.14;101379.59;124695;1102;104249;-75
2022/12/29 07:46:10;;;;;;;22.73;9.37;;;;;;;2.70;73.94;101380.34;124142;1102;118748;-77
2022/12/29 07:48:42;;;;;;;25.77;8.90;;;;;;;2.77;74.82;101372.27;124063;1102;104533;-76
2022/12/29 07:51:16;;;;;;;22.70;8.97;;;;;;;2.83;74.52;101377.05;124147;1102;104082;-76
2022/12/29 07:53:47;;;;;;;26.12;9.05;;;;;;;2.86;74.78;101385.97;124281;1102;104172;-75
2022/12/29 07:56:19;;;;;;;21.77;9.23;;;;;;;2.92;74.19;101390.75;124212;1102;104280;-76
2022/12/29 07:58:51;;;;;;;27.67;9.10;;;;;;;2.97;74.41;101381.64;124339;1102;103020;-77
2022/12/29 08:01:23;;;;;;;24.57;9.47;;;;;;;3.06;74.54;101390.16;124419;1102;104176;-77
2022/12/29 08:03:55;;;;;;;25.30;9.07;;;;;;;3.18;73.97;101398.03;124300;1102;104256;-77
2022/12/29 08:06:30;;;;;;;19.87;8.90;;;;;;;3.28;74.23;101404.84;124473;1102;102299;-75
2022/12/29 08:09:02;;;;;;;27.13;9.10;;;;;;;3.36;74.40;101397.67;124340;1102;104519;-76
2022/12/29 08:11:33;;;;;;;23.13;9.37;;;;;;;3.43;74.00;101405.16;124375;1101;104294;-76
2022/12/29 08:14:05;;;;;;;24.77;9.33;;;;;;;3.51;73.31;101401.47;124298;1102;104214;-77
2022/12/29 08:16:38;;;;;;;26.20;11.17;;;;;;;3.57;74.17;101399.36;124460;1102;104204;-75
2022/12/29 08:19:13;;;;;;;25.35;10.48;;;;;;;3.68;73.84;101401.90;124575;1102;104233;-76
2022/12/29 08:21:53;;;;;;;22.90;9.70;;;;;;;3.81;73.74;101401.15;124412;1102;102712;-76
2022/12/29 08:24:25;;;;;;;22.03;8.70;;;;;;;3.88;73.31;101393.02;124432;1102;104255;-76
2022/12/29 08:26:57;;;;;;;22.87;9.60;;;;;;;3.93;73.97;101395.20;123988;1102;108775;-75
2022/12/29 08:29:28;;;;;;;25.77;9.20;;;;;;;4.03;74.08;101386.41;124219;1102;104233;-76
2022/12/29 08:32:00;;;;;;;26.07;9.73;;;;;;;4.10;73.89;101386.09;124264;1102;104595;-76
2022/12/29 08:34:33;;;;;;;30.63;10.87;;;;;;;4.16;73.47;101385.67;124452;1102;102125;-75
2022/12/29 08:37:05;;;;;;;24.43;8.80;;;;;;;4.20;73.57;101381.59;124426;1102;102420;-75
2022/12/29 08:39:38;;;;;;;21.93;8.37;;;;;;;4.28;73.61;101380.47;124437;1102;104255;-75
2022/12/29 08:42:30;;;;;;;22.07;8.70;;;;;;;4.33;74.07;101373.91;124440;1102;105592;-75
2022/12/29 08:45:02;;;;;;;23.07;8.53;;;;;;;4.44;73.92;101382.52;124223;1102;104220;-75
2022/12/29 08:47:35;;;;;;;20.53;8.63;;;;;;;4.54;73.19;101368.53;124243;1102;103742;-76
2022/12/29 08:50:09;;;;;;;23.70;9.15;;;;;;;4.63;73.58;101362.30;124236;1102;104380;-77
2022/12/29 08:52:41;;;;;;;25.65;10.20;;;;;;;4.71;73.42;101349.86;124217;1102;104197;-76
2022/12/29 08:55:17;;;;;;;25.60;10.53;;;;;;;4.81;73.32;101349.72;124184;1102;104284;-76
2022/12/29 08:57:50;;;;;;;24.90;9.77;;;;;;;4.91;73.11;101337.38;124307;1102;109261;-76
2022/12/29 09:00:25;;;;;;;22.73;9.95;;;;;;;4.98;72.92;101330.12;124246;1102;102847;-77
2022/12/29 09:03:00;;;;;;;24.07;9.07;;;;;;;5.07;73.45;101323.80;124471;1102;104385;-76
2022/12/29 09:05:32;;;;;;;24.20;9.37;;;;;;;5.13;73.33;101313.83;124436;1102;104238;-76
2022/12/29 09:08:04;;;;;;;25.83;9.57;;;;;;;5.17;73.18;101308.02;124173;1102;104198;-76
2022/12/29 09:10:35;;;;;;;23.33;9.37;;;;;;;5.20;72.83;101310.84;124384;1102;104213;-76
2022/12/29 09:13:07;;;;;;;21.23;8.50;;;;;;;5.25;73.60;101304.28;124223;1102;104232;-77
2022/12/29 09:15:44;;;;;;;20.47;8.33;;;;;;;5.26;72.37;101300.86;124522;1102;103225;-75
2022/12/29 09:18:16;;;;;;;20.70;8.10;;;;;;;5.31;72.05;101293.38;124087;1102;107827;-77
2022/12/29 09:20:50;;;;;;;21.60;8.00;;;;;;;5.35;72.49;101287.59;124352;1102;104178;-76
2022/12/29 09:23:21;;;;;;;23.17;8.03;;;;;;;5.40;72.17;101275.79;124250;1101;104245;-75
2022/12/29 09:25:53;;;;;;;21.93;8.50;;;;;;;5.47;72.25;101269.30;124170;1102;104223;-75
2022/12/29 09:28:25;;;;;;;19.40;8.27;;;;;;;5.54;72.54;101263.72;124011;1102;104297;-74
2022/12/29 09:31:01;;;;;;;32.90;9.57;;;;;;;5.62;71.73;101259.93;124123;1102;104386;-75
2022/12/29 09:33:35;;;;;;;22.93;9.03;;;;;;;5.66;71.75;101250.65;126217;1102;101935;-75
2022/12/29 09:36:09;;;;;;;31.33;9.63;;;;;;;5.73;72.29;101253.77;126472;1102;101972;-75
2022/12/29 09:38:40;;;;;;;23.63;9.80;;;;;;;5.81;72.15;101245.55;124434;1102;104171;-75
2022/12/29 09:41:27;;;;;;;27.77;10.33;;;;;;;5.85;71.65;101248.45;124114;1102;104232;-76
2022/12/29 09:44:13;;;;;;;25.17;10.37;;;;;;;5.91;71.83;101241.05;124391;1102;102511;-76
2022/12/29 09:46:49;;;;;;;23.60;10.63;;;;;;;5.99;72.21;101241.59;124175;1102;104198;-77
2022/12/29 09:49:29;;;;;;;26.60;10.83;;;;;;;6.04;71.52;101240.19;124204;1102;103049;-76
2022/12/29 09:52:12;;;;;;;25.63;9.77;;;;;;;6.05;71.23;101221.16;124266;1102;104224;-76
2022/12/29 09:54:51;;;;;;;22.67;9.50;;;;;;;6.13;71.60;101233.80;124287;1102;104178;-76
2022/12/29 09:57:28;;;;;;;19.60;8.20;;;;;;;6.18;71.24;101240.20;124314;1102;102456;-76
2022/12/29 10:00:04;;;;;;;17.67;7.40;;;;;;;6.23;71.38;101236.17;124333;1102;104233;-77
2022/12/29 10:02:49;;;;;;;19.12;7.20;;;;;;;6.30;71.41;101238.39;124356;1102;104182;-77
2022/12/29 10:05:37;;;;;;;23.07;7.57;;;;;;;6.37;70.87;101243.17;124478;1102;104230;-77
2022/12/29 10:08:29;;;;;;;43.03;10.33;;;;;;;6.42;70.75;101244.39;124546;1102;104373;-76
2022/12/29 10:11:09;;;;;;;49.93;11.23;;;;;;;6.45;70.93;101239.38;124183;1102;104325;-77
2022/12/29 10:13:53;;;;;;;46.13;10.90;;;;;;;6.52;71.43;101247.59;124267;1102;102237;-78
2022/12/29 10:16:32;;;;;;;28.00;8.63;;;;;;;6.54;70.85;101243.37;124295;1102;104206;-76
2022/12/29 10:19:21;;;;;;;19.87;7.90;;;;;;;6.57;70.95;101249.67;124397;1102;104211;-77
2022/12/29 10:22:06;;;;;;;20.97;7.50;;;;;;;6.62;70.23;101236.92;124310;1102;104317;-76
2022/12/29 10:24:40;;;;;;;22.60;8.13;;;;;;;6.66;70.22;101236.33;124584;1102;104319;-78
2022/12/29 10:27:16;;;;;;;18.97;7.53;;;;;;;6.70;70.06;101234.80;124529;1099;104191;-78
2022/12/29 10:29:53;;;;;;;56.30;10.97;;;;;;;6.72;69.93;101239.32;124598;1099;107468;-77
2022/12/29 10:32:37;;;;;;;18.87;7.00;;;;;;;6.74;69.94;101236.81;124707;1099;104359;-79
2022/12/29 10:35:17;;;;;;;20.07;7.67;;;;;;;6.80;69.75;101232.87;124885;1099;104166;-79
2022/12/29 10:37:57;;;;;;;17.30;7.17;;;;;;;6.80;69.10;101235.48;124677;1099;103000;-78
2022/12/29 10:40:36;;;;;;;24.97;7.50;;;;;;;6.83;69.89;101226.95;125007;1099;104274;-79
2022/12/29 10:43:25;;;;;;;21.57;6.70;;;;;;;6.84;69.61;101219.22;126702;1098;101982;-76
2022/12/29 10:46:06;;;;;;;20.47;8.00;;;;;;;6.84;69.48;101223.55;125042;1099;104168;-75
2022/12/29 10:48:45;;;;;;;21.03;7.27;;;;;;;6.87;69.35;101218.48;124443;1099;104329;-76
2022/12/29 10:51:23;;;;;;;18.47;7.13;;;;;;;6.90;69.00;101216.07;124441;1099;102446;-77
2022/12/29 10:54:01;;;;;;;17.23;6.97;;;;;;;6.93;69.25;101211.05;124540;1099;104188;-76
2022/12/29 10:56:37;;;;;;;20.27;7.57;;;;;;;6.96;69.44;101215.56;124612;1099;104243;-77
2022/12/29 10:59:17;;;;;;;15.70;6.60;;;;;;;6.99;68.54;101213.14;124496;1099;104169;-75
2022/12/29 11:01:58;;;;;;;19.10;7.30;;;;;;;7.01;68.90;101214.13;124639;1099;104242;-75
2022/12/29 11:04:43;;;;;;;17.07;7.40;;;;;;;7.02;68.72;101210.72;124505;1099;104258;-76
2022/12/29 11:07:20;;;;;;;17.97;7.77;;;;;;;7.06;69.47;101215.33;125088;1099;104054;-77
2022/12/29 11:09:57;;;;;;;16.57;6.77;;;;;;;7.10;68.77;101201.64;124656;1099;104169;-78
2022/12/29 11:12:32;;;;;;;21.17;7.67;;;;;;;7.05;67.07;101197.86;124676;1099;103048;-77
2022/12/29 11:15:16;;;;;;;21.75;8.15;;;;;;;7.03;67.78;101194.27;124905;1099;102378;-79
2022/12/29 11:17:50;;;;;;;21.15;7.80;;;;;;;7.03;68.24;101196.88;124595;1099;103456;-77
2022/12/29 11:20:39;;;;;;;22.07;8.10;;;;;;;7.02;68.04;101195.06;124581;1099;104246;-77
2022/12/29 11:23:26;;;;;;;18.50;7.50;;;;;;;7.06;68.34;101194.45;124706;1099;104239;-79
2022/12/29 11:26:16;;;;;;;25.17;8.80;;;;;;;7.06;67.90;101196.14;124345;1099;104175;-76
2022/12/29 11:29:04;;;;;;;18.83;7.40;;;;;;;7.07;68.16;101191.02;124478;1099;104262;-76
2022/12/29 11:31:43;;;;;;;16.00;7.43;;;;;;;7.09;67.89;101196.33;124618;1099;102113;-75
2022/12/29 11:34:20;;;;;;;21.37;8.57;;;;;;;7.09;67.99;101191.11;124580;1099;104249;-76
2022/12/29 11:36:55;;;;;;;20.10;7.30;;;;;;;7.04;68.49;101169.95;124528;1099;104309;-77
2022/12/29 11:39:35;;;;;;;18.17;7.63;;;;;;;7.14;67.98;101180.15;124448;1099;104236;-77
2022/12/29 11:42:16;;;;;;;20.73;8.10;;;;;;;7.17;67.58;101180.34;124380;1099;104310;-78
2022/12/29 11:44:54;;;;;;;20.53;8.30;;;;;;;7.18;66.14;101181.23;124472;1099;104217;-77
2022/12/29 11:47:32;;;;;;;21.63;8.77;;;;;;;7.15;66.50;101174.13;124566;1099;102440;-79
2022/12/29 11:50:06;;;;;;;19.43;8.37;;;;;;;7.15;67.20;101168.91;124337;1102;104198;-79
2022/12/29 11:52:39;;;;;;;;;;;;;;;7.12;66.54;101167.80;124355;1099;104248;-78
2022/12/29 11:55:27;;;;;;;23.50;8.67;;;;;;;7.12;67.16;101167.80;124417;1099;102901;-78
2022/12/29 11:58:05;;;;;;;24.33;8.83;;;;;;;7.17;67.44;101169.01;124402;1099;104743;-80
2022/12/29 12:00:46;;;;;;;19.87;7.90;;;;;;;7.21;67.51;101163.14;124407;1099;104223;-79
2022/12/29 12:03:23;;;;;;;19.90;7.73;;;;;;;7.23;66.84;101153.71;124634;1099;104358;-78
2022/12/29 12:05:59;;;;;;;19.67;8.37;;;;;;;7.23;67.03;101144.95;124450;1103;104248;-77
2022/12/29 12:08:38;;;;;;;20.30;7.57;;;;;;;7.26;67.47;101142.53;124491;1099;104179;-79
2022/12/29 12:11:15;;;;;;;18.80;7.50;;;;;;;7.31;66.84;101139.39;124638;1099;104272;-79
2022/12/29 12:13:58;;;;;;;20.50;7.80;;;;;;;7.31;66.31;101142.00;124865;1099;103049;-79
2022/12/29 12:16:40;;;;;;;18.30;7.87;;;;;;;7.32;66.74;101148.12;124704;1099;102495;-78
2022/12/29 12:19:21;;;;;;;19.13;7.80;;;;;;;7.33;66.73;101149.92;124493;1099;104201;-78
2022/12/29 12:22:04;;;;;;;21.13;8.37;;;;;;;7.34;66.57;101149.13;124816;1099;117809;-77
2022/12/29 12:24:43;;;;;;;18.70;8.60;;;;;;;7.34;66.91;101150.02;124879;1098;103048;-77
2022/12/29 12:27:21;;;;;;;22.27;7.80;;;;;;;7.33;66.54;101149.92;124736;1099;104281;-78
2022/12/29 12:30:02;;;;;;;19.27;7.63;;;;;;;7.34;66.25;101156.96;124578;1099;104245;-78
2022/12/29 12:32:44;;;;;;;19.65;8.20;;;;;;;7.32;66.17;101151.65;124263;1099;104277;-77